Betty Jo — WDF8736 — position and weather

sailwx.info

Track history (hours):
 
Tides and Currents Weather Stations Pressure Air Temp Water Temp Dewpoint Dewpoint Depression Visibility Wind Speed Wind Dir Waves Ship Positions

Betty Jo

Owner: Inland Marine, Inc., Chesapeake, VA. More information available from US FCC via Universal Licensing System and Coast Guard Vessel Documentation Center.

Last reported at 2018-Jul-18 14:41 UTC. Time now 2018-Jul-20 02:56 UTC.
Position N 36°46' W 076°18'.

Length 20 m; draft 3 m.

Type: Tug. MMSI: 367498030.

Date/timePositionNaut miles runAvg speedWind from/ knotsBaromVisibWave heightAir tempDewpointWater temp
2018-Jul-18 14:41N 36°46' W 076°18'1 3.4
2018-Jul-18 14:30N 36°46' W 076°18'4 4.2
2018-Jul-18 13:30N 36°51' W 076°17'1 1.7
2018-Jul-18 13:00N 36°50' W 076°16'2 3.2
2018-Jul-18 12:30N 36°49' W 076°17'2 5.0
2018-Jul-18 12:00N 36°47' W 076°18'1 2.5
2018-Jul-18 11:30N 36°46' W 076°18'  
2018-Jul-12 20:40N 36°46' W 076°18'1 4.8
2018-Jul-12 20:30N 36°47' W 076°18'3 6.3
2018-Jul-12 19:59N 36°50' W 076°18'4 0.7
2018-Jul-12 14:08N 36°46' W 076°18'0 0.0
2018-Jul-11 19:02N 36°46' W 076°18'0 0.2
2018-Jul-11 19:00N 36°46' W 076°18'0 0.6
2018-Jul-11 18:30N 36°46' W 076°18'3 5.3
2018-Jul-11 18:00N 36°49' W 076°17'4 0.9
2018-Jul-11 13:40N 36°52' W 076°20'1 6.5
2018-Jul-11 13:30N 36°51' W 076°19'3 6.3
2018-Jul-11 13:00N 36°48' W 076°17'2 4.8
2018-Jul-11 12:30N 36°46' W 076°18'0 0.8
2018-Jul-11 12:00N 36°46' W 076°18'0 0.0
2018-Jul-10 21:58N 36°46' W 076°18'1 2.0
2018-Jul-10 21:30N 36°47' W 076°18'2 3.8
2018-Jul-10 21:00N 36°49' W 076°17'2 4.1
2018-Jul-10 20:30N 36°51' W 076°17'1 1.9
2018-Jul-10 20:00N 36°50' W 076°16'0 0.0
2018-Jul-10 19:30N 36°50' W 076°16'0 0.0
2018-Jul-10 19:00N 36°50' W 076°16'0 0.0
2018-Jul-10 18:27N 36°50' W 076°16'1 2.7
2018-Jul-10 17:59N 36°50' W 076°18'2 5.0
2018-Jul-10 17:30N 36°48' W 076°18'2 3.6
2018-Jul-10 17:00N 36°46' W 076°18'0 0.0
2018-Jul-10 16:29N 36°46' W 076°18'0 0.0
2018-Jul-10 15:59N 36°46' W 076°18'0 0.0
2018-Jul-10 15:30N 36°46' W 076°18'0 0.0
2018-Jul-10 15:00N 36°46' W 076°18'0 0.0
2018-Jul-10 14:28N 36°46' W 076°18'0 0.0
2018-Jul-10 13:59N 36°46' W 076°18'0 0.0
2018-Jul-10 13:30N 36°46' W 076°18'0 0.0
2018-Jul-10 13:00N 36°46' W 076°18'0 0.0
2018-Jul-10 12:30N 36°46' W 076°18'0 0.0
2018-Jul-10 11:59N 36°46' W 076°18'0 0.1
2018-Jul-10 11:29N 36°46' W 076°18'  
Track history (hours):
 
Tides and Currents Weather Stations Pressure Air Temp Water Temp Dewpoint Dewpoint Depression Visibility Wind Speed Wind Dir Waves Ship Positions

Betty Jo

Owner: Inland Marine, Inc., Chesapeake, VA. More information available from US FCC via Universal Licensing System and Coast Guard Vessel Documentation Center.

Last reported at 2018-Jul-18 14:41 UTC. Time now 2018-Jul-20 02:56 UTC.
Position N 36°46' W 076°18'.

Length 20 m; draft 3 m.

Type: Tug. MMSI: 367498030.

Date/timePositionNaut miles runAvg speedWind from/ knotsBaromVisibWave heightAir tempDewpointWater temp
2018-Jul-18 14:41N 36°46' W 076°18'1 3.4
2018-Jul-18 14:30N 36°46' W 076°18'4 4.2
2018-Jul-18 13:30N 36°51' W 076°17'1 1.7
2018-Jul-18 13:00N 36°50' W 076°16'2 3.2
2018-Jul-18 12:30N 36°49' W 076°17'2 5.0
2018-Jul-18 12:00N 36°47' W 076°18'1 2.5
2018-Jul-18 11:30N 36°46' W 076°18'  
2018-Jul-12 20:40N 36°46' W 076°18'1 4.8
2018-Jul-12 20:30N 36°47' W 076°18'3 6.3
2018-Jul-12 19:59N 36°50' W 076°18'4 0.7
2018-Jul-12 14:08N 36°46' W 076°18'0 0.0
2018-Jul-11 19:02N 36°46' W 076°18'0 0.2
2018-Jul-11 19:00N 36°46' W 076°18'0 0.6
2018-Jul-11 18:30N 36°46' W 076°18'3 5.3
2018-Jul-11 18:00N 36°49' W 076°17'4 0.9
2018-Jul-11 13:40N 36°52' W 076°20'1 6.5
2018-Jul-11 13:30N 36°51' W 076°19'3 6.3
2018-Jul-11 13:00N 36°48' W 076°17'2 4.8
2018-Jul-11 12:30N 36°46' W 076°18'0 0.8
2018-Jul-11 12:00N 36°46' W 076°18'0 0.0
2018-Jul-10 21:58N 36°46' W 076°18'1 2.0
2018-Jul-10 21:30N 36°47' W 076°18'2 3.8
2018-Jul-10 21:00N 36°49' W 076°17'2 4.1
2018-Jul-10 20:30N 36°51' W 076°17'1 1.9
2018-Jul-10 20:00N 36°50' W 076°16'0 0.0
2018-Jul-10 19:30N 36°50' W 076°16'0 0.0
2018-Jul-10 19:00N 36°50' W 076°16'0 0.0
2018-Jul-10 18:27N 36°50' W 076°16'1 2.7
2018-Jul-10 17:59N 36°50' W 076°18'2 5.0
2018-Jul-10 17:30N 36°48' W 076°18'2 3.6
2018-Jul-10 17:00N 36°46' W 076°18'0 0.0
2018-Jul-10 16:29N 36°46' W 076°18'0 0.0
2018-Jul-10 15:59N 36°46' W 076°18'0 0.0
2018-Jul-10 15:30N 36°46' W 076°18'0 0.0
2018-Jul-10 15:00N 36°46' W 076°18'0 0.0
2018-Jul-10 14:28N 36°46' W 076°18'0 0.0
2018-Jul-10 13:59N 36°46' W 076°18'0 0.0
2018-Jul-10 13:30N 36°46' W 076°18'0 0.0
2018-Jul-10 13:00N 36°46' W 076°18'0 0.0
2018-Jul-10 12:30N 36°46' W 076°18'0 0.0
2018-Jul-10 11:59N 36°46' W 076°18'0 0.1
2018-Jul-10 11:29N 36°46' W 076°18'  

Dump ship's entire track history